sensor_id;sensor_type;location;lat;lon;timestamp;temperature;humidity
13806;DHT22;6974;53.606;9.872;2022-09-01T00:01:03;15.60;99.90
13806;DHT22;6974;53.606;9.872;2022-09-01T00:03:30;15.50;99.90
13806;DHT22;6974;53.606;9.872;2022-09-01T00:05:59;15.50;99.90
13806;DHT22;6974;53.606;9.872;2022-09-01T00:08:28;15.50;99.90
13806;DHT22;6974;53.606;9.872;2022-09-01T00:10:56;15.50;99.90
13806;DHT22;6974;53.606;9.872;2022-09-01T00:13:24;15.50;99.90
13806;DHT22;6974;53.606;9.872;2022-09-01T00:15:51;15.40;99.90
13806;DHT22;6974;53.606;9.872;2022-09-01T00:18:20;15.40;99.90
13806;DHT22;6974;53.606;9.872;2022-09-01T00:20:47;15.40;99.90
13806;DHT22;6974;53.606;9.872;2022-09-01T00:23:15;15.40;99.90
13806;DHT22;6974;53.606;9.872;2022-09-01T00:25:43;15.40;99.90
13806;DHT22;6974;53.606;9.872;2022-09-01T00:28:09;15.40;99.90
13806;DHT22;6974;53.606;9.872;2022-09-01T00:30:36;15.40;99.90
13806;DHT22;6974;53.606;9.872;2022-09-01T00:33:03;15.40;99.90
13806;DHT22;6974;53.606;9.872;2022-09-01T00:35:30;15.40;99.90
13806;DHT22;6974;53.606;9.872;2022-09-01T00:37:57;15.30;99.90
13806;DHT22;6974;53.606;9.872;2022-09-01T00:40:26;15.30;99.90
13806;DHT22;6974;53.606;9.872;2022-09-01T00:42:53;15.30;99.90
13806;DHT22;6974;53.606;9.872;2022-09-01T00:45:21;15.20;99.90
13806;DHT22;6974;53.606;9.872;2022-09-01T00:47:48;15.20;99.90
13806;DHT22;6974;53.606;9.872;2022-09-01T00:50:17;15.20;99.90
13806;DHT22;6974;53.606;9.872;2022-09-01T00:52:47;15.20;99.90
13806;DHT22;6974;53.606;9.872;2022-09-01T00:55:18;15.20;99.90
13806;DHT22;6974;53.606;9.872;2022-09-01T00:57:48;15.10;99.90
13806;DHT22;6974;53.606;9.872;2022-09-01T01:00:17;15.00;99.90
13806;DHT22;6974;53.606;9.872;2022-09-01T01:02:47;15.10;99.90
13806;DHT22;6974;53.606;9.872;2022-09-01T01:05:15;15.00;99.90
13806;DHT22;6974;53.606;9.872;2022-09-01T01:07:42;15.00;99.90
13806;DHT22;6974;53.606;9.872;2022-09-01T01:10:12;14.90;99.90
13806;DHT22;6974;53.606;9.872;2022-09-01T01:12:40;14.90;99.90
13806;DHT22;6974;53.606;9.872;2022-09-01T01:15:11;14.90;99.90
13806;DHT22;6974;53.606;9.872;2022-09-01T01:17:40;14.90;99.90
13806;DHT22;6974;53.606;9.872;2022-09-01T01:20:08;14.90;99.90
13806;DHT22;6974;53.606;9.872;2022-09-01T01:22:59;14.80;99.90
13806;DHT22;6974;53.606;9.872;2022-09-01T01:25:30;14.80;99.90
13806;DHT22;6974;53.606;9.872;2022-09-01T01:28:10;14.80;99.90
13806;DHT22;6974;53.606;9.872;2022-09-01T01:30:45;14.80;99.90
13806;DHT22;6974;53.606;9.872;2022-09-01T01:33:15;14.70;99.90
13806;DHT22;6974;53.606;9.872;2022-09-01T01:35:43;14.70;99.90
13806;DHT22;6974;53.606;9.872;2022-09-01T01:38:11;14.60;99.90
13806;DHT22;6974;53.606;9.872;2022-09-01T01:40:42;14.60;99.90
13806;DHT22;6974;53.606;9.872;2022-09-01T01:43:09;14.60;99.90
13806;DHT22;6974;53.606;9.872;2022-09-01T01:45:45;14.60;99.90
13806;DHT22;6974;53.606;9.872;2022-09-01T01:48:13;14.60;99.90
13806;DHT22;6974;53.606;9.872;2022-09-01T01:50:49;14.60;99.90
13806;DHT22;6974;53.606;9.872;2022-09-01T01:53:17;14.60;99.90
13806;DHT22;6974;53.606;9.872;2022-09-01T01:55:46;14.60;99.90
13806;DHT22;6974;53.606;9.872;2022-09-01T01:58:14;14.60;99.90
13806;DHT22;6974;53.606;9.872;2022-09-01T02:00:41;14.50;99.90
13806;DHT22;6974;53.606;9.872;2022-09-01T02:03:10;14.60;99.90
13806;DHT22;6974;53.606;9.872;2022-09-01T02:05:44;14.60;99.90
13806;DHT22;6974;53.606;9.872;2022-09-01T02:08:12;14.50;99.90
13806;DHT22;6974;53.606;9.872;2022-09-01T02:10:42;14.50;99.90
13806;DHT22;6974;53.606;9.872;2022-09-01T02:13:13;14.50;99.90
13806;DHT22;6974;53.606;9.872;2022-09-01T02:15:45;14.50;99.90
13806;DHT22;6974;53.606;9.872;2022-09-01T02:18:14;14.50;99.90
13806;DHT22;6974;53.606;9.872;2022-09-01T02:20:42;14.50;99.90
13806;DHT22;6974;53.606;9.872;2022-09-01T02:23:10;14.40;99.90
13806;DHT22;6974;53.606;9.872;2022-09-01T02:25:41;14.40;99.90
13806;DHT22;6974;53.606;9.872;2022-09-01T02:28:13;14.30;99.90
13806;DHT22;6974;53.606;9.872;2022-09-01T02:30:41;14.30;99.90
13806;DHT22;6974;53.606;9.872;2022-09-01T02:33:09;14.30;99.90
13806;DHT22;6974;53.606;9.872;2022-09-01T02:35:38;14.30;99.90
13806;DHT22;6974;53.606;9.872;2022-09-01T02:38:06;14.30;99.90
13806;DHT22;6974;53.606;9.872;2022-09-01T02:40:33;14.20;99.90
13806;DHT22;6974;53.606;9.872;2022-09-01T02:43:00;14.30;99.90
13806;DHT22;6974;53.606;9.872;2022-09-01T02:45:28;14.30;99.90
13806;DHT22;6974;53.606;9.872;2022-09-01T02:47:56;14.30;99.90
13806;DHT22;6974;53.606;9.872;2022-09-01T02:50:24;14.20;99.90
13806;DHT22;6974;53.606;9.872;2022-09-01T02:52:51;14.20;99.90
13806;DHT22;6974;53.606;9.872;2022-09-01T02:55:20;14.20;99.90
13806;DHT22;6974;53.606;9.872;2022-09-01T02:57:48;14.10;99.90
13806;DHT22;6974;53.606;9.872;2022-09-01T03:00:17;14.10;99.90
13806;DHT22;6974;53.606;9.872;2022-09-01T03:02:57;14.00;99.90
13806;DHT22;6974;53.606;9.872;2022-09-01T03:05:26;14.00;99.90
13806;DHT22;6974;53.606;9.872;2022-09-01T03:07:56;14.00;99.90
13806;DHT22;6974;53.606;9.872;2022-09-01T03:10:28;14.00;99.90
13806;DHT22;6974;53.606;9.872;2022-09-01T03:12:59;13.90;99.90
13806;DHT22;6974;53.606;9.872;2022-09-01T03:15:27;14.00;99.90
13806;DHT22;6974;53.606;9.872;2022-09-01T03:17:56;13.90;99.90
13806;DHT22;6974;53.606;9.872;2022-09-01T03:20:24;13.90;99.90
13806;DHT22;6974;53.606;9.872;2022-09-01T03:22:50;13.80;99.90
13806;DHT22;6974;53.606;9.872;2022-09-01T03:25:18;13.90;99.90
13806;DHT22;6974;53.606;9.872;2022-09-01T03:27:45;13.90;99.90
13806;DHT22;6974;53.606;9.872;2022-09-01T03:30:13;13.90;99.90
13806;DHT22;6974;53.606;9.872;2022-09-01T03:32:40;13.80;99.90
13806;DHT22;6974;53.606;9.872;2022-09-01T03:35:09;13.90;99.90
13806;DHT22;6974;53.606;9.872;2022-09-01T03:37:37;13.80;99.90
13806;DHT22;6974;53.606;9.872;2022-09-01T03:40:10;13.70;99.90
13806;DHT22;6974;53.606;9.872;2022-09-01T03:42:38;13.80;99.90
13806;DHT22;6974;53.606;9.872;2022-09-01T03:45:06;13.80;99.90
13806;DHT22;6974;53.606;9.872;2022-09-01T03:47:37;13.80;99.90
13806;DHT22;6974;53.606;9.872;2022-09-01T03:50:07;13.70;99.90
13806;DHT22;6974;53.606;9.872;2022-09-01T03:52:38;13.70;99.90
13806;DHT22;6974;53.606;9.872;2022-09-01T03:55:06;13.70;99.90
13806;DHT22;6974;53.606;9.872;2022-09-01T03:57:34;13.60;99.90
13806;DHT22;6974;53.606;9.872;2022-09-01T04:00:08;13.70;99.90
13806;DHT22;6974;53.606;9.872;2022-09-01T04:02:45;13.60;99.90
13806;DHT22;6974;53.606;9.872;2022-09-01T04:05:13;13.60;99.90
13806;DHT22;6974;53.606;9.872;2022-09-01T04:07:42;13.60;99.90
13806;DHT22;6974;53.606;9.872;2022-09-01T04:10:11;13.60;99.90
13806;DHT22;6974;53.606;9.872;2022-09-01T04:12:38;13.50;99.90
13806;DHT22;6974;53.606;9.872;2022-09-01T04:15:06;13.60;99.90
13806;DHT22;6974;53.606;9.872;2022-09-01T04:17:34;13.50;99.90
13806;DHT22;6974;53.606;9.872;2022-09-01T04:20:19;13.50;99.90
13806;DHT22;6974;53.606;9.872;2022-09-01T04:22:48;13.50;99.90
13806;DHT22;6974;53.606;9.872;2022-09-01T04:25:16;13.40;99.90
13806;DHT22;6974;53.606;9.872;2022-09-01T04:27:48;13.50;99.90
13806;DHT22;6974;53.606;9.872;2022-09-01T04:30:15;13.50;99.90
13806;DHT22;6974;53.606;9.872;2022-09-01T04:32:45;13.50;99.90
13806;DHT22;6974;53.606;9.872;2022-09-01T04:35:12;13.50;99.90
13806;DHT22;6974;53.606;9.872;2022-09-01T04:37:41;13.40;99.90
13806;DHT22;6974;53.606;9.872;2022-09-01T04:40:10;13.40;99.90
13806;DHT22;6974;53.606;9.872;2022-09-01T04:42:38;13.30;99.90
13806;DHT22;6974;53.606;9.872;2022-09-01T04:45:07;13.30;99.90
13806;DHT22;6974;53.606;9.872;2022-09-01T04:47:35;13.30;99.90
13806;DHT22;6974;53.606;9.872;2022-09-01T04:50:08;13.30;99.90
13806;DHT22;6974;53.606;9.872;2022-09-01T04:52:39;13.20;99.90
13806;DHT22;6974;53.606;9.872;2022-09-01T04:55:10;13.30;99.90
13806;DHT22;6974;53.606;9.872;2022-09-01T04:57:42;13.30;99.90
13806;DHT22;6974;53.606;9.872;2022-09-01T05:00:13;13.30;99.90
13806;DHT22;6974;53.606;9.872;2022-09-01T05:02:47;13.30;99.90
13806;DHT22;6974;53.606;9.872;2022-09-01T05:05:15;13.30;99.90
13806;DHT22;6974;53.606;9.872;2022-09-01T05:07:42;13.30;99.90
13806;DHT22;6974;53.606;9.872;2022-09-01T05:10:11;13.30;99.90
13806;DHT22;6974;53.606;9.872;2022-09-01T05:12:39;13.40;99.90
13806;DHT22;6974;53.606;9.872;2022-09-01T05:15:09;13.30;99.90
13806;DHT22;6974;53.606;9.872;2022-09-01T05:17:37;13.40;99.90
13806;DHT22;6974;53.606;9.872;2022-09-01T05:20:06;13.40;99.90
13806;DHT22;6974;53.606;9.872;2022-09-01T05:22:34;13.40;99.90
13806;DHT22;6974;53.606;9.872;2022-09-01T05:25:03;13.40;99.90
13806;DHT22;6974;53.606;9.872;2022-09-01T05:27:38;13.40;99.90
13806;DHT22;6974;53.606;9.872;2022-09-01T05:30:07;13.30;99.90
13806;DHT22;6974;53.606;9.872;2022-09-01T05:32:35;13.40;99.90
13806;DHT22;6974;53.606;9.872;2022-09-01T05:35:05;13.50;99.90
13806;DHT22;6974;53.606;9.872;2022-09-01T05:37:34;13.50;99.90
13806;DHT22;6974;53.606;9.872;2022-09-01T05:40:04;13.50;99.90
13806;DHT22;6974;53.606;9.872;2022-09-01T05:42:31;13.50;99.90
13806;DHT22;6974;53.606;9.872;2022-09-01T05:45:00;13.50;99.90
13806;DHT22;6974;53.606;9.872;2022-09-01T05:47:30;13.60;99.90
13806;DHT22;6974;53.606;9.872;2022-09-01T05:50:02;13.70;99.90
13806;DHT22;6974;53.606;9.872;2022-09-01T05:52:32;13.70;99.90
13806;DHT22;6974;53.606;9.872;2022-09-01T05:55:01;13.80;99.90
13806;DHT22;6974;53.606;9.872;2022-09-01T05:57:28;13.90;99.90
13806;DHT22;6974;53.606;9.872;2022-09-01T06:00:03;14.00;99.90
13806;DHT22;6974;53.606;9.872;2022-09-01T06:02:35;14.00;99.90
13806;DHT22;6974;53.606;9.872;2022-09-01T06:05:04;14.20;99.90
13806;DHT22;6974;53.606;9.872;2022-09-01T06:07:32;14.20;99.90
13806;DHT22;6974;53.606;9.872;2022-09-01T06:10:01;14.30;99.90
13806;DHT22;6974;53.606;9.872;2022-09-01T06:12:28;14.40;99.90
13806;DHT22;6974;53.606;9.872;2022-09-01T06:14:55;14.40;99.90
13806;DHT22;6974;53.606;9.872;2022-09-01T06:17:26;14.50;99.90
13806;DHT22;6974;53.606;9.872;2022-09-01T06:19:56;14.60;99.90
13806;DHT22;6974;53.606;9.872;2022-09-01T06:22:26;14.70;99.90
13806;DHT22;6974;53.606;9.872;2022-09-01T06:24:53;14.70;99.90
13806;DHT22;6974;53.606;9.872;2022-09-01T06:27:21;14.80;99.90
13806;DHT22;6974;53.606;9.872;2022-09-01T06:29:48;14.80;99.90
13806;DHT22;6974;53.606;9.872;2022-09-01T06:32:18;14.90;99.90
13806;DHT22;6974;53.606;9.872;2022-09-01T06:34:46;15.00;99.90
13806;DHT22;6974;53.606;9.872;2022-09-01T06:37:16;15.00;99.90
13806;DHT22;6974;53.606;9.872;2022-09-01T06:39:47;15.10;99.90
13806;DHT22;6974;53.606;9.872;2022-09-01T06:42:14;15.20;99.90
13806;DHT22;6974;53.606;9.872;2022-09-01T06:44:42;15.30;99.90
13806;DHT22;6974;53.606;9.872;2022-09-01T06:47:10;15.40;99.90
13806;DHT22;6974;53.606;9.872;2022-09-01T06:49:37;15.50;99.90
13806;DHT22;6974;53.606;9.872;2022-09-01T06:52:07;15.50;99.90
13806;DHT22;6974;53.606;9.872;2022-09-01T06:54:36;15.60;99.90
13806;DHT22;6974;53.606;9.872;2022-09-01T06:57:05;15.60;99.90
13806;DHT22;6974;53.606;9.872;2022-09-01T06:59:33;15.70;99.90
13806;DHT22;6974;53.606;9.872;2022-09-01T07:02:00;15.70;99.90
13806;DHT22;6974;53.606;9.872;2022-09-01T07:04:28;15.80;99.90
13806;DHT22;6974;53.606;9.872;2022-09-01T07:06:56;15.90;99.90
13806;DHT22;6974;53.606;9.872;2022-09-01T07:09:24;15.90;99.90
13806;DHT22;6974;53.606;9.872;2022-09-01T07:11:51;16.00;99.90
13806;DHT22;6974;53.606;9.872;2022-09-01T07:14:20;16.00;99.90
13806;DHT22;6974;53.606;9.872;2022-09-01T07:16:47;16.00;99.90
13806;DHT22;6974;53.606;9.872;2022-09-01T07:19:15;16.10;99.90
13806;DHT22;6974;53.606;9.872;2022-09-01T07:21:43;16.30;99.90
13806;DHT22;6974;53.606;9.872;2022-09-01T07:24:11;16.40;99.90
13806;DHT22;6974;53.606;9.872;2022-09-01T07:26:42;16.60;99.90
13806;DHT22;6974;53.606;9.872;2022-09-01T07:29:12;16.70;99.90
13806;DHT22;6974;53.606;9.872;2022-09-01T07:31:40;16.80;99.90
13806;DHT22;6974;53.606;9.872;2022-09-01T07:34:10;16.90;99.90
13806;DHT22;6974;53.606;9.872;2022-09-01T07:36:38;17.00;99.90
13806;DHT22;6974;53.606;9.872;2022-09-01T07:39:07;17.10;99.90
13806;DHT22;6974;53.606;9.872;2022-09-01T07:41:35;17.10;99.90
13806;DHT22;6974;53.606;9.872;2022-09-01T07:44:09;17.10;99.90
13806;DHT22;6974;53.606;9.872;2022-09-01T07:46:38;17.20;99.90
13806;DHT22;6974;53.606;9.872;2022-09-01T07:49:06;17.30;99.90
13806;DHT22;6974;53.606;9.872;2022-09-01T07:51:33;17.40;99.90
13806;DHT22;6974;53.606;9.872;2022-09-01T07:54:01;17.50;99.90
13806;DHT22;6974;53.606;9.872;2022-09-01T07:56:27;17.60;99.90
13806;DHT22;6974;53.606;9.872;2022-09-01T07:58:56;17.60;99.90
13806;DHT22;6974;53.606;9.872;2022-09-01T08:01:27;17.60;99.90
13806;DHT22;6974;53.606;9.872;2022-09-01T08:03:55;17.80;99.90
13806;DHT22;6974;53.606;9.872;2022-09-01T08:06:24;17.90;99.90
13806;DHT22;6974;53.606;9.872;2022-09-01T08:08:53;18.00;99.90
13806;DHT22;6974;53.606;9.872;2022-09-01T08:11:24;18.00;99.90
13806;DHT22;6974;53.606;9.872;2022-09-01T08:13:51;18.10;99.90
13806;DHT22;6974;53.606;9.872;2022-09-01T08:16:19;18.20;99.90
13806;DHT22;6974;53.606;9.872;2022-09-01T08:18:48;18.20;99.90
13806;DHT22;6974;53.606;9.872;2022-09-01T08:21:17;18.10;99.90
13806;DHT22;6974;53.606;9.872;2022-09-01T08:23:47;18.20;99.90
13806;DHT22;6974;53.606;9.872;2022-09-01T08:26:16;18.30;99.90
13806;DHT22;6974;53.606;9.872;2022-09-01T08:28:43;18.30;99.90
13806;DHT22;6974;53.606;9.872;2022-09-01T08:31:12;18.40;99.90
13806;DHT22;6974;53.606;9.872;2022-09-01T08:33:41;18.40;99.90
13806;DHT22;6974;53.606;9.872;2022-09-01T08:36:12;18.50;99.90
13806;DHT22;6974;53.606;9.872;2022-09-01T08:38:40;18.60;99.90
13806;DHT22;6974;53.606;9.872;2022-09-01T08:41:15;18.60;99.90
13806;DHT22;6974;53.606;9.872;2022-09-01T08:43:52;18.60;99.90
13806;DHT22;6974;53.606;9.872;2022-09-01T08:46:25;18.60;99.90
13806;DHT22;6974;53.606;9.872;2022-09-01T08:48:55;18.60;99.90
13806;DHT22;6974;53.606;9.872;2022-09-01T08:51:31;18.70;99.90
13806;DHT22;6974;53.606;9.872;2022-09-01T08:54:06;18.70;99.90
13806;DHT22;6974;53.606;9.872;2022-09-01T08:56:36;18.70;99.90
13806;DHT22;6974;53.606;9.872;2022-09-01T08:59:06;18.80;99.90
13806;DHT22;6974;53.606;9.872;2022-09-01T09:01:39;18.90;99.90
13806;DHT22;6974;53.606;9.872;2022-09-01T09:04:20;18.90;99.90
13806;DHT22;6974;53.606;9.872;2022-09-01T09:07:01;18.90;99.90
13806;DHT22;6974;53.606;9.872;2022-09-01T09:09:36;18.90;99.90
13806;DHT22;6974;53.606;9.872;2022-09-01T09:12:25;19.10;99.90
13806;DHT22;6974;53.606;9.872;2022-09-01T09:15:00;19.20;99.90
13806;DHT22;6974;53.606;9.872;2022-09-01T09:17:34;19.40;99.90
13806;DHT22;6974;53.606;9.872;2022-09-01T09:20:03;19.50;99.90
13806;DHT22;6974;53.606;9.872;2022-09-01T09:22:32;19.80;99.90
13806;DHT22;6974;53.606;9.872;2022-09-01T09:25:04;20.00;99.90
13806;DHT22;6974;53.606;9.872;2022-09-01T09:27:35;20.20;99.90
13806;DHT22;6974;53.606;9.872;2022-09-01T09:30:06;20.50;99.90
13806;DHT22;6974;53.606;9.872;2022-09-01T09:32:52;20.70;99.90
13806;DHT22;6974;53.606;9.872;2022-09-01T09:35:24;21.00;99.90
13806;DHT22;6974;53.606;9.872;2022-09-01T09:37:53;21.20;99.90
13806;DHT22;6974;53.606;9.872;2022-09-01T09:40:21;21.40;99.90
13806;DHT22;6974;53.606;9.872;2022-09-01T09:43:05;21.60;99.90
13806;DHT22;6974;53.606;9.872;2022-09-01T09:45:34;21.80;99.90
13806;DHT22;6974;53.606;9.872;2022-09-01T09:48:07;22.00;99.90
13806;DHT22;6974;53.606;9.872;2022-09-01T09:50:37;22.10;99.90
13806;DHT22;6974;53.606;9.872;2022-09-01T09:53:26;22.20;99.90
13806;DHT22;6974;53.606;9.872;2022-09-01T09:55:57;22.40;99.90
13806;DHT22;6974;53.606;9.872;2022-09-01T09:58:28;22.50;99.90
13806;DHT22;6974;53.606;9.872;2022-09-01T10:01:06;22.60;99.90
13806;DHT22;6974;53.606;9.872;2022-09-01T10:03:36;22.80;99.90
13806;DHT22;6974;53.606;9.872;2022-09-01T10:06:10;22.70;99.90
13806;DHT22;6974;53.606;9.872;2022-09-01T10:08:42;22.60;99.90
13806;DHT22;6974;53.606;9.872;2022-09-01T10:11:29;22.80;99.90
13806;DHT22;6974;53.606;9.872;2022-09-01T10:13:56;23.00;99.90
13806;DHT22;6974;53.606;9.872;2022-09-01T10:16:26;23.20;99.90
13806;DHT22;6974;53.606;9.872;2022-09-01T10:18:56;23.30;99.90
13806;DHT22;6974;53.606;9.872;2022-09-01T10:21:27;23.50;99.90
13806;DHT22;6974;53.606;9.872;2022-09-01T10:23:58;23.60;99.90
13806;DHT22;6974;53.606;9.872;2022-09-01T10:26:29;23.70;99.90
13806;DHT22;6974;53.606;9.872;2022-09-01T10:29:03;23.90;99.90
13806;DHT22;6974;53.606;9.872;2022-09-01T10:31:32;24.10;99.90
13806;DHT22;6974;53.606;9.872;2022-09-01T10:34:01;24.20;99.90
13806;DHT22;6974;53.606;9.872;2022-09-01T10:36:30;24.30;99.90
13806;DHT22;6974;53.606;9.872;2022-09-01T10:38:59;24.40;99.90
13806;DHT22;6974;53.606;9.872;2022-09-01T10:41:49;24.50;99.90
13806;DHT22;6974;53.606;9.872;2022-09-01T10:44:23;24.60;99.90
13806;DHT22;6974;53.606;9.872;2022-09-01T10:46:51;24.70;99.90
13806;DHT22;6974;53.606;9.872;2022-09-01T10:52:51;24.90;99.90
13806;DHT22;6974;53.606;9.872;2022-09-01T10:55:24;24.50;99.90
13806;DHT22;6974;53.606;9.872;2022-09-01T11:01:06;24.10;99.90
13806;DHT22;6974;53.606;9.872;2022-09-01T11:03:52;24.20;99.90
13806;DHT22;6974;53.606;9.872;2022-09-01T11:06:43;24.40;99.90
13806;DHT22;6974;53.606;9.872;2022-09-01T11:09:20;24.60;99.90
13806;DHT22;6974;53.606;9.872;2022-09-01T11:12:01;24.60;99.90
13806;DHT22;6974;53.606;9.872;2022-09-01T11:14:33;24.40;99.90
13806;DHT22;6974;53.606;9.872;2022-09-01T11:17:15;24.20;99.90
13806;DHT22;6974;53.606;9.872;2022-09-01T11:19:44;23.80;99.90
13806;DHT22;6974;53.606;9.872;2022-09-01T11:22:31;23.50;99.90
13806;DHT22;6974;53.606;9.872;2022-09-01T11:30:57;22.60;99.90
13806;DHT22;6974;53.606;9.872;2022-09-01T11:33:37;22.60;99.90
13806;DHT22;6974;53.606;9.872;2022-09-01T11:36:13;22.90;99.90
13806;DHT22;6974;53.606;9.872;2022-09-01T11:38:46;23.40;99.90
13806;DHT22;6974;53.606;9.872;2022-09-01T11:41:25;23.70;99.90
13806;DHT22;6974;53.606;9.872;2022-09-01T11:44:01;23.90;99.90
13806;DHT22;6974;53.606;9.872;2022-09-01T11:46:32;24.10;99.90
13806;DHT22;6974;53.606;9.872;2022-09-01T11:49:04;24.20;99.90
13806;DHT22;6974;53.606;9.872;2022-09-01T11:51:43;24.30;99.90
13806;DHT22;6974;53.606;9.872;2022-09-01T11:54:11;24.20;99.90
13806;DHT22;6974;53.606;9.872;2022-09-01T11:56:39;24.10;99.90
13806;DHT22;6974;53.606;9.872;2022-09-01T11:59:07;24.00;99.90
13806;DHT22;6974;53.606;9.872;2022-09-01T12:01:37;23.90;99.90
13806;DHT22;6974;53.606;9.872;2022-09-01T12:04:25;23.90;99.90
13806;DHT22;6974;53.606;9.872;2022-09-01T12:06:55;24.00;99.90
13806;DHT22;6974;53.606;9.872;2022-09-01T12:09:34;24.00;99.90
13806;DHT22;6974;53.606;9.872;2022-09-01T12:12:03;23.80;99.90
13806;DHT22;6974;53.606;9.872;2022-09-01T12:14:33;23.70;99.90
13806;DHT22;6974;53.606;9.872;2022-09-01T12:17:03;23.60;99.90
13806;DHT22;6974;53.606;9.872;2022-09-01T12:19:32;23.40;99.90
13806;DHT22;6974;53.606;9.872;2022-09-01T12:22:02;23.30;99.90
13806;DHT22;6974;53.606;9.872;2022-09-01T12:24:33;23.10;99.90
13806;DHT22;6974;53.606;9.872;2022-09-01T12:27:01;22.90;99.90
13806;DHT22;6974;53.606;9.872;2022-09-01T12:29:29;22.80;99.90
13806;DHT22;6974;53.606;9.872;2022-09-01T12:31:59;22.70;99.90
13806;DHT22;6974;53.606;9.872;2022-09-01T12:34:36;22.70;99.90
13806;DHT22;6974;53.606;9.872;2022-09-01T12:37:10;22.70;99.90
13806;DHT22;6974;53.606;9.872;2022-09-01T12:39:39;22.80;99.90
13806;DHT22;6974;53.606;9.872;2022-09-01T12:42:11;22.80;99.90
13806;DHT22;6974;53.606;9.872;2022-09-01T12:44:50;22.80;99.90
13806;DHT22;6974;53.606;9.872;2022-09-01T12:47:45;22.80;99.90
13806;DHT22;6974;53.606;9.872;2022-09-01T12:50:33;22.90;99.90
13806;DHT22;6974;53.606;9.872;2022-09-01T12:53:01;22.90;99.90
13806;DHT22;6974;53.606;9.872;2022-09-01T12:55:30;22.90;99.90
13806;DHT22;6974;53.606;9.872;2022-09-01T12:58:00;22.80;99.90
13806;DHT22;6974;53.606;9.872;2022-09-01T13:00:28;22.80;99.90
13806;DHT22;6974;53.606;9.872;2022-09-01T13:03:09;22.80;99.90
13806;DHT22;6974;53.606;9.872;2022-09-01T13:05:38;22.80;99.90
13806;DHT22;6974;53.606;9.872;2022-09-01T13:08:07;22.80;99.90
13806;DHT22;6974;53.606;9.872;2022-09-01T13:10:37;22.60;99.90
13806;DHT22;6974;53.606;9.872;2022-09-01T13:13:04;22.60;99.90
13806;DHT22;6974;53.606;9.872;2022-09-01T13:15:33;22.70;99.90
13806;DHT22;6974;53.606;9.872;2022-09-01T13:18:00;22.70;99.90
13806;DHT22;6974;53.606;9.872;2022-09-01T13:20:29;22.70;99.90
13806;DHT22;6974;53.606;9.872;2022-09-01T13:22:56;22.80;99.90
13806;DHT22;6974;53.606;9.872;2022-09-01T13:25:24;22.80;99.90
13806;DHT22;6974;53.606;9.872;2022-09-01T13:27:51;22.90;99.90
13806;DHT22;6974;53.606;9.872;2022-09-01T13:30:21;23.00;99.90
13806;DHT22;6974;53.606;9.872;2022-09-01T13:32:49;23.10;99.90
13806;DHT22;6974;53.606;9.872;2022-09-01T13:35:18;23.20;99.90
13806;DHT22;6974;53.606;9.872;2022-09-01T13:37:47;23.40;99.90
13806;DHT22;6974;53.606;9.872;2022-09-01T13:40:16;23.50;99.90
13806;DHT22;6974;53.606;9.872;2022-09-01T13:42:43;23.50;99.90
13806;DHT22;6974;53.606;9.872;2022-09-01T13:45:11;23.40;99.90
13806;DHT22;6974;53.606;9.872;2022-09-01T13:47:39;23.30;99.90
13806;DHT22;6974;53.606;9.872;2022-09-01T13:50:07;23.00;99.90
13806;DHT22;6974;53.606;9.872;2022-09-01T13:52:35;22.90;99.90
13806;DHT22;6974;53.606;9.872;2022-09-01T13:55:05;22.70;99.90
13806;DHT22;6974;53.606;9.872;2022-09-01T13:57:32;22.70;99.90
13806;DHT22;6974;53.606;9.872;2022-09-01T13:59:59;22.60;99.90
13806;DHT22;6974;53.606;9.872;2022-09-01T14:02:27;22.50;99.90
13806;DHT22;6974;53.606;9.872;2022-09-01T14:04:54;22.50;99.90
13806;DHT22;6974;53.606;9.872;2022-09-01T14:07:20;22.50;99.90
13806;DHT22;6974;53.606;9.872;2022-09-01T14:09:47;22.60;99.90
13806;DHT22;6974;53.606;9.872;2022-09-01T14:12:16;22.60;99.90
13806;DHT22;6974;53.606;9.872;2022-09-01T14:14:43;22.60;99.90
13806;DHT22;6974;53.606;9.872;2022-09-01T14:17:10;22.60;99.90
13806;DHT22;6974;53.606;9.872;2022-09-01T14:19:37;22.60;99.90
13806;DHT22;6974;53.606;9.872;2022-09-01T14:22:04;22.60;99.90
13806;DHT22;6974;53.606;9.872;2022-09-01T14:24:33;22.80;99.90
13806;DHT22;6974;53.606;9.872;2022-09-01T14:27:00;22.80;99.90
13806;DHT22;6974;53.606;9.872;2022-09-01T14:29:29;22.90;99.90
13806;DHT22;6974;53.606;9.872;2022-09-01T14:31:56;23.00;99.90
13806;DHT22;6974;53.606;9.872;2022-09-01T14:34:29;23.20;99.90
13806;DHT22;6974;53.606;9.872;2022-09-01T14:36:56;23.30;99.90
13806;DHT22;6974;53.606;9.872;2022-09-01T14:39:24;23.40;99.90
13806;DHT22;6974;53.606;9.872;2022-09-01T14:41:51;23.60;99.90
13806;DHT22;6974;53.606;9.872;2022-09-01T14:44:19;23.70;99.90
13806;DHT22;6974;53.606;9.872;2022-09-01T14:46:47;23.80;99.90
13806;DHT22;6974;53.606;9.872;2022-09-01T14:49:15;23.80;99.90
13806;DHT22;6974;53.606;9.872;2022-09-01T14:51:45;23.90;99.90
13806;DHT22;6974;53.606;9.872;2022-09-01T14:54:12;24.00;99.90
13806;DHT22;6974;53.606;9.872;2022-09-01T14:56:39;24.20;99.90
13806;DHT22;6974;53.606;9.872;2022-09-01T14:59:06;24.30;99.90
13806;DHT22;6974;53.606;9.872;2022-09-01T15:01:35;24.30;99.90
13806;DHT22;6974;53.606;9.872;2022-09-01T15:04:04;24.30;99.90
13806;DHT22;6974;53.606;9.872;2022-09-01T15:06:30;24.30;99.90
13806;DHT22;6974;53.606;9.872;2022-09-01T15:08:58;24.10;99.90
13806;DHT22;6974;53.606;9.872;2022-09-01T15:11:26;23.80;99.90
13806;DHT22;6974;53.606;9.872;2022-09-01T15:13:54;23.50;99.90
13806;DHT22;6974;53.606;9.872;2022-09-01T15:16:23;23.30;99.90
13806;DHT22;6974;53.606;9.872;2022-09-01T15:18:51;23.00;99.90
13806;DHT22;6974;53.606;9.872;2022-09-01T15:21:22;22.90;99.90
13806;DHT22;6974;53.606;9.872;2022-09-01T15:23:50;22.70;99.90
13806;DHT22;6974;53.606;9.872;2022-09-01T15:26:19;22.50;99.90
13806;DHT22;6974;53.606;9.872;2022-09-01T15:28:49;22.40;99.90
13806;DHT22;6974;53.606;9.872;2022-09-01T15:31:19;22.30;99.90
13806;DHT22;6974;53.606;9.872;2022-09-01T15:33:47;22.30;99.90
13806;DHT22;6974;53.606;9.872;2022-09-01T15:36:15;22.40;99.90
13806;DHT22;6974;53.606;9.872;2022-09-01T15:38:45;22.60;99.90
13806;DHT22;6974;53.606;9.872;2022-09-01T15:41:15;22.80;99.90
13806;DHT22;6974;53.606;9.872;2022-09-01T15:43:42;23.00;99.90
13806;DHT22;6974;53.606;9.872;2022-09-01T15:46:09;23.00;99.90
13806;DHT22;6974;53.606;9.872;2022-09-01T15:48:39;23.10;99.90
13806;DHT22;6974;53.606;9.872;2022-09-01T15:51:28;23.10;99.90
13806;DHT22;6974;53.606;9.872;2022-09-01T15:54:03;23.00;99.90
13806;DHT22;6974;53.606;9.872;2022-09-01T15:56:30;22.80;99.90
13806;DHT22;6974;53.606;9.872;2022-09-01T15:58:58;22.70;99.90
13806;DHT22;6974;53.606;9.872;2022-09-01T16:01:28;22.60;99.90
13806;DHT22;6974;53.606;9.872;2022-09-01T16:03:55;22.50;99.90
13806;DHT22;6974;53.606;9.872;2022-09-01T16:06:22;22.30;99.90
13806;DHT22;6974;53.606;9.872;2022-09-01T16:08:52;22.20;99.90
13806;DHT22;6974;53.606;9.872;2022-09-01T16:11:22;22.10;99.90
13806;DHT22;6974;53.606;9.872;2022-09-01T16:13:51;22.00;99.90
13806;DHT22;6974;53.606;9.872;2022-09-01T16:16:30;22.00;99.90